createdAt,value
2018-04-19T00:00:37.373Z,16.12
2018-04-19T00:01:37.803Z,16.13
2018-04-19T00:03:40.152Z,16.12
2018-04-19T00:04:32.876Z,16.10
2018-04-19T00:06:39.712Z,15.97
2018-04-19T00:07:28.899Z,15.97
2018-04-19T00:13:47.647Z,16.05
2018-04-19T00:14:12.735Z,15.97
2018-04-19T00:16:15.055Z,16.13
2018-04-19T00:18:43.176Z,16.04
2018-04-19T00:21:15.526Z,15.97
2018-04-19T00:21:37.182Z,16.00
2018-04-19T00:23:31.750Z,16.05
2018-04-19T00:24:32.211Z,16.02
2018-04-19T00:26:26.758Z,16.08
2018-04-19T00:30:25.836Z,16.04
2018-04-19T00:31:15.020Z,16.00
2018-04-19T00:35:15.932Z,15.98
2018-04-19T00:39:09.711Z,16.04
2018-04-19T00:39:51.876Z,16.02
2018-04-19T00:41:49.783Z,16.04
2018-04-19T00:42:46.962Z,16.04
2018-04-19T00:44:41.525Z,16.04
2018-04-19T00:46:59.014Z,15.97
2018-04-19T00:49:11.164Z,16.00
2018-04-19T00:52:59.968Z,15.92
2018-04-19T00:54:01.396Z,15.80
2018-04-19T00:55:54.955Z,15.77
2018-04-19T00:56:55.389Z,15.80
2018-04-19T01:00:23.043Z,15.70
2018-04-19T01:03:09.033Z,15.57
2018-04-19T01:03:38.313Z,15.57
2018-04-19T01:12:24.575Z,15.46
2018-04-19T01:12:45.706Z,15.37
2018-04-19T01:16:32.983Z,15.37
2018-04-19T01:22:07.063Z,15.21
2018-04-19T01:22:35.743Z,15.19
2018-04-19T01:25:20.549Z,15.21
2018-04-19T01:26:09.740Z,15.11
2018-04-19T01:27:10.155Z,15.06
2018-04-19T01:28:10.585Z,15.17
2018-04-19T01:29:11.024Z,15.03
2018-04-19T01:30:11.463Z,15.17
2018-04-19T01:31:11.890Z,15.09
2018-04-19T01:32:12.331Z,15.11
2018-04-19T01:33:12.763Z,15.03
2018-04-19T01:34:13.184Z,14.99
2018-04-19T01:35:13.620Z,14.99
2018-04-19T01:36:14.063Z,14.96
2018-04-19T01:37:14.542Z,14.96
2018-04-19T01:38:14.924Z,14.86
2018-04-19T01:39:15.370Z,14.84
2018-04-19T01:40:15.786Z,14.89
2018-04-19T01:41:16.217Z,14.78
2018-04-19T01:42:16.659Z,14.73
2018-04-19T01:43:17.084Z,14.86
2018-04-19T01:44:17.765Z,14.94
2018-04-19T01:45:17.946Z,14.91
2018-04-19T01:46:18.385Z,14.79
2018-04-19T01:47:18.813Z,14.86
2018-04-19T01:48:19.447Z,14.85
2018-04-19T01:49:19.678Z,14.94
2018-04-19T01:50:20.111Z,14.88
2018-04-19T01:51:20.547Z,14.89
2018-04-19T01:52:21.028Z,14.86
2018-04-19T01:53:21.417Z,14.96
2018-04-19T01:54:21.854Z,14.88
2018-04-19T01:55:22.276Z,14.88
2018-04-19T01:56:22.707Z,14.73
2018-04-19T01:57:23.149Z,14.79
2018-04-19T01:58:23.717Z,14.82
2018-04-19T01:59:24.003Z,14.96
2018-04-19T02:00:24.440Z,14.85
2018-04-19T02:01:24.878Z,14.82
2018-04-19T02:02:25.635Z,14.86
2018-04-19T02:03:25.740Z,14.94
2018-04-19T02:04:26.180Z,14.94
2018-04-19T02:05:26.599Z,14.82
2018-04-19T02:06:27.037Z,14.82
2018-04-19T02:07:27.470Z,14.82
2018-04-19T02:08:27.901Z,14.72
2018-04-19T02:09:28.334Z,14.77
2018-04-19T02:10:28.791Z,14.79
2018-04-19T02:11:29.196Z,14.82
2018-04-19T02:12:29.626Z,14.85
2018-04-19T02:14:06.046Z,14.94
2018-04-19T02:16:03.587Z,14.77
2018-04-19T02:17:04.017Z,14.77
2018-04-19T02:18:58.575Z,14.72
2018-04-19T02:19:59.003Z,14.66
2018-04-19T02:23:28.605Z,14.62
2018-04-19T02:27:16.445Z,14.53
2018-04-19T02:29:32.118Z,14.51
2018-04-19T02:30:32.550Z,14.51
2018-04-19T02:32:28.108Z,14.53
2018-04-19T02:33:28.535Z,14.65
2018-04-19T02:35:38.444Z,14.70
2018-04-19T02:36:24.519Z,14.65
2018-04-19T02:40:15.936Z,14.62
2018-04-19T02:40:52.631Z,14.63
2018-04-19T02:42:48.180Z,14.65
2018-04-19T02:43:48.614Z,14.62
2018-04-19T02:45:44.155Z,14.66
2018-04-19T02:46:44.609Z,14.63
2018-04-19T02:48:40.159Z,14.68
2018-04-19T02:53:09.201Z,14.66
2018-04-19T02:53:30.366Z,14.62
2018-04-19T02:55:24.904Z,14.73
2018-04-19T02:56:25.333Z,14.78
2018-04-19T02:57:25.768Z,14.65
2018-04-19T02:58:26.195Z,14.63
2018-04-19T02:59:26.646Z,14.77
2018-04-19T03:00:27.064Z,14.72
2018-04-19T03:01:27.496Z,14.70
2018-04-19T03:02:27.947Z,14.65
2018-04-19T03:04:04.201Z,14.59
2018-04-19T03:04:28.791Z,14.68
2018-04-19T03:05:29.229Z,14.60
2018-04-19T03:06:29.657Z,14.72
2018-04-19T03:07:30.083Z,14.68
2018-04-19T03:08:30.527Z,14.68
2018-04-19T03:09:30.960Z,14.60
2018-04-19T03:10:31.390Z,14.60
2018-04-19T03:11:31.897Z,14.55
2018-04-19T03:14:10.620Z,14.53
2018-04-19T03:18:24.471Z,14.41
2018-04-19T03:20:07.903Z,14.47
2018-04-19T03:21:08.342Z,14.45
2018-04-19T03:23:03.913Z,14.58
2018-04-19T03:24:04.312Z,14.54
2018-04-19T03:25:59.367Z,14.58
2018-04-19T03:26:59.810Z,14.53
2018-04-19T03:28:54.405Z,14.55
2018-04-19T03:31:31.231Z,14.58
2018-04-19T03:33:38.609Z,14.54
2018-04-19T03:34:26.065Z,14.51
2018-04-19T03:36:34.078Z,14.59
2018-04-19T03:37:20.244Z,14.44
2018-04-19T03:39:14.810Z,14.50
2018-04-19T03:40:15.242Z,14.55
2018-04-19T03:43:43.877Z,14.48
2018-04-19T03:44:44.301Z,14.55
2018-04-19T03:46:38.882Z,14.50
2018-04-19T03:48:53.603Z,14.48
2018-04-19T03:49:54.024Z,14.50
2018-04-19T03:51:48.602Z,14.53
2018-04-19T03:52:49.046Z,14.59
2018-04-19T03:56:16.720Z,14.60
2018-04-19T03:57:17.163Z,14.58
2018-04-19T03:59:12.218Z,14.55
2018-04-19T04:00:12.644Z,14.45
2018-04-19T04:02:07.221Z,14.54
2018-04-19T04:06:32.765Z,14.59
2018-04-19T04:08:28.002Z,14.54
2018-04-19T04:09:10.174Z,14.55
2018-04-19T04:11:08.016Z,14.62
2018-04-19T04:13:30.279Z,14.48
2018-04-19T04:14:19.945Z,14.36
2018-04-19T04:15:20.372Z,14.32
2018-04-19T04:16:20.811Z,14.30
2018-04-19T04:21:02.696Z,14.25
2018-04-19T04:23:03.354Z,14.32
2018-04-19T04:23:42.581Z,14.40
2018-04-19T04:27:28.524Z,14.40
2018-04-19T04:29:24.977Z,14.45
2018-04-19T04:30:25.405Z,14.44
2018-04-19T04:31:40.703Z,14.45
2018-04-19T04:32:26.276Z,14.33
2018-04-19T04:33:26.705Z,14.37
2018-04-19T04:36:00.256Z,14.37
2018-04-19T04:38:26.237Z,14.33
2018-04-19T04:40:29.817Z,14.30
2018-04-19T04:41:30.241Z,14.30
2018-04-19T04:43:59.581Z,14.25
2018-04-19T04:44:25.249Z,14.28
2018-04-19T04:50:59.351Z,14.47
2018-04-19T04:51:59.512Z,14.53
2018-04-19T04:53:54.111Z,14.41
2018-04-19T04:54:57.330Z,14.43
2018-04-19T04:56:49.112Z,14.62
2018-04-19T04:57:49.535Z,14.59
2018-04-19T05:01:18.182Z,14.68
2018-04-19T05:03:54.072Z,14.68
2018-04-19T05:06:28.912Z,14.73
2018-04-19T05:07:29.350Z,14.70
2018-04-19T05:08:29.758Z,14.73
2018-04-19T05:09:30.199Z,14.77
2018-04-19T05:10:30.629Z,14.81
2018-04-19T05:11:31.061Z,14.82
2018-04-19T05:14:35.869Z,14.79
2018-04-19T05:17:53.391Z,15.17
2018-04-19T05:18:53.817Z,15.07
2018-04-19T05:20:49.420Z,15.04
2018-04-19T05:21:49.849Z,15.02
2018-04-19T05:23:59.681Z,15.07
2018-04-19T05:24:46.742Z,15.00
2018-04-19T05:26:55.670Z,15.11
2018-04-19T05:29:22.392Z,15.17
2018-04-19T05:29:56.548Z,15.19
2018-04-19T05:31:51.125Z,15.11
2018-04-19T05:32:51.560Z,15.18
2018-04-19T05:33:51.987Z,15.17
2018-04-19T05:34:52.468Z,15.21
2018-04-19T05:35:52.913Z,15.31
2018-04-19T05:36:53.291Z,15.33
2018-04-19T05:37:53.719Z,15.39
2018-04-19T05:38:54.159Z,15.43
2018-04-19T05:39:54.610Z,15.44
2018-04-19T05:40:55.018Z,15.42
2018-04-19T05:41:55.485Z,15.47
2018-04-19T05:42:55.895Z,15.47
2018-04-19T05:43:56.330Z,15.59
2018-04-19T05:44:56.762Z,15.54
2018-04-19T05:45:57.194Z,15.49
2018-04-19T05:46:57.616Z,15.58
2018-04-19T05:47:58.055Z,15.72
2018-04-19T05:48:58.497Z,15.79
2018-04-19T05:49:58.917Z,15.94
2018-04-19T05:50:59.361Z,15.95
2018-04-19T05:51:59.798Z,15.94
2018-04-19T05:53:00.220Z,15.91
2018-04-19T05:54:00.671Z,15.94
2018-04-19T05:55:01.093Z,16.01
2018-04-19T05:56:01.527Z,16.01
2018-04-19T05:57:01.968Z,16.10
2018-04-19T05:58:02.480Z,16.04
2018-04-19T05:59:02.829Z,16.12
2018-04-19T06:00:03.258Z,16.28
2018-04-19T06:01:03.690Z,16.26
2018-04-19T06:02:04.130Z,16.29
2018-04-19T06:03:04.611Z,16.46
2018-04-19T06:04:04.996Z,16.43
2018-04-19T06:05:05.432Z,16.51
2018-04-19T06:06:05.878Z,16.68
2018-04-19T06:07:06.299Z,16.64
2018-04-19T06:08:06.751Z,16.60
2018-04-19T06:09:07.188Z,16.60
2018-04-19T06:10:07.615Z,16.75
2018-04-19T06:11:08.041Z,16.89
2018-04-19T06:12:08.477Z,17.05
2018-04-19T06:13:08.910Z,17.12
2018-04-19T06:14:09.348Z,16.96
2018-04-19T06:15:09.793Z,17.09
2018-04-19T06:16:10.218Z,17.06
2018-04-19T06:17:10.662Z,16.99
2018-04-19T06:18:11.094Z,16.93
2018-04-19T06:19:11.531Z,17.19
2018-04-19T06:20:11.965Z,17.22
2018-04-19T06:21:12.395Z,17.34
2018-04-19T06:22:13.285Z,17.57
2018-04-19T06:23:13.512Z,17.60
2018-04-19T06:24:13.854Z,17.67
2018-04-19T06:25:14.370Z,17.78
2018-04-19T06:26:14.633Z,17.83
2018-04-19T06:27:15.236Z,17.83
2018-04-19T06:28:15.591Z,17.92
2018-04-19T06:29:15.887Z,17.95
2018-04-19T06:30:16.377Z,18.03
2018-04-19T06:31:16.757Z,18.04
2018-04-19T06:32:17.193Z,18.00
2018-04-19T06:33:17.630Z,18.03
2018-04-19T06:34:18.067Z,18.05
2018-04-19T06:35:18.510Z,18.04
2018-04-19T06:36:18.944Z,18.15
2018-04-19T06:37:19.472Z,18.05
2018-04-19T06:38:19.818Z,18.22
2018-04-19T06:39:20.254Z,18.20
2018-04-19T06:40:20.695Z,18.23
2018-04-19T06:41:21.124Z,18.40
2018-04-19T06:42:21.560Z,18.38
2018-04-19T06:43:22.026Z,18.41
2018-04-19T06:44:22.437Z,18.47
2018-04-19T06:45:22.880Z,18.55
2018-04-19T06:46:23.312Z,18.58
2018-04-19T06:47:23.750Z,18.66
2018-04-19T06:48:24.189Z,18.80
2018-04-19T06:49:24.631Z,18.77
2018-04-19T06:50:25.060Z,18.83
2018-04-19T06:51:25.500Z,18.90
2018-04-19T06:52:25.938Z,19.07
2018-04-19T06:53:26.378Z,19.21
2018-04-19T06:54:26.822Z,19.27
2018-04-19T06:55:27.251Z,19.19
2018-04-19T06:56:27.690Z,19.30
2018-04-19T06:57:28.127Z,19.48
2018-04-19T06:58:28.567Z,19.51
2018-04-19T06:59:29.005Z,19.59
2018-04-19T07:00:29.444Z,19.62
2018-04-19T07:01:29.889Z,19.74
2018-04-19T07:02:30.322Z,19.70
2018-04-19T07:03:30.762Z,19.73
2018-04-19T07:04:31.198Z,19.89
2018-04-19T07:05:31.642Z,19.74
2018-04-19T07:06:34.969Z,19.92
2018-04-19T07:07:32.520Z,20.03
2018-04-19T07:08:32.959Z,20.11
2018-04-19T07:09:33.402Z,20.14
2018-04-19T07:10:33.843Z,20.21
2018-04-19T07:11:34.286Z,20.41
2018-04-19T07:12:34.723Z,20.41
2018-04-19T07:13:35.164Z,20.52
2018-04-19T07:14:35.625Z,20.70
2018-04-19T07:15:36.048Z,20.96
2018-04-19T07:16:36.482Z,21.07
2018-04-19T07:17:36.924Z,21.14
2018-04-19T07:18:37.368Z,21.35
2018-04-19T07:19:37.803Z,21.42
2018-04-19T07:20:38.248Z,21.51
2018-04-19T07:21:38.688Z,21.58
2018-04-19T07:22:39.147Z,21.67
2018-04-19T07:23:39.578Z,21.83
2018-04-19T07:24:40.014Z,22.08
2018-04-19T07:25:40.458Z,21.98
2018-04-19T07:26:40.905Z,21.89
2018-04-19T07:27:41.339Z,21.99
2018-04-19T07:28:41.787Z,22.13
2018-04-19T07:29:42.226Z,22.26
2018-04-19T07:30:42.673Z,22.32
2018-04-19T07:31:43.116Z,22.25
2018-04-19T07:32:43.557Z,22.38
2018-04-19T07:33:44.012Z,22.57
2018-04-19T07:35:12.441Z,22.72
2018-04-19T07:35:59.429Z,22.87
2018-04-19T07:36:45.339Z,22.96
2018-04-19T07:37:45.792Z,22.93
2018-04-19T07:38:46.237Z,22.90
2018-04-19T07:39:46.689Z,22.88
2018-04-19T07:40:47.128Z,22.85
2018-04-19T07:41:47.576Z,23.00
2018-04-19T07:42:48.026Z,23.02
2018-04-19T07:43:48.476Z,23.13
2018-04-19T07:44:48.924Z,23.25
2018-04-19T07:45:49.374Z,23.43
2018-04-19T07:46:49.825Z,23.76
2018-04-19T07:47:50.334Z,23.91
2018-04-19T07:48:50.836Z,23.34
2018-04-19T07:49:57.985Z,23.21
2018-04-19T07:50:51.644Z,23.98
2018-04-19T07:52:13.255Z,24.17
2018-04-19T07:52:52.585Z,24.28
2018-04-19T07:53:52.995Z,24.53
2018-04-19T07:54:53.455Z,23.61
2018-04-19T07:55:53.899Z,24.38
2018-04-19T07:56:54.354Z,24.47
2018-04-19T07:57:54.866Z,24.76
2018-04-19T07:58:55.265Z,25.07
2018-04-19T08:01:28.884Z,25.35
2018-04-19T08:02:29.308Z,25.50
2018-04-19T08:04:23.943Z,25.36
2018-04-19T08:05:24.416Z,25.47
2018-04-19T08:07:27.469Z,25.90
2018-04-19T08:08:19.557Z,26.51
2018-04-19T08:10:15.045Z,27.27
2018-04-19T08:11:15.530Z,27.55
2018-04-19T08:13:10.547Z,27.65
2018-04-19T08:14:11.001Z,26.85
2018-04-19T08:15:11.526Z,27.71
2018-04-19T08:16:11.919Z,28.33
2018-04-19T08:17:12.381Z,28.88
2018-04-19T08:18:12.839Z,29.59
2018-04-19T08:19:13.302Z,30.00
2018-04-19T08:20:13.762Z,30.53
2018-04-19T08:21:14.221Z,30.28
2018-04-19T08:22:14.750Z,30.70
2018-04-19T08:23:15.153Z,30.61
2018-04-19T08:24:15.607Z,30.63
2018-04-19T08:25:16.072Z,29.35
2018-04-19T08:26:16.529Z,29.27
2018-04-19T08:27:17.818Z,29.73
2018-04-19T08:28:17.459Z,29.50
2018-04-19T08:29:17.923Z,29.51
2018-04-19T08:30:18.382Z,29.94
2018-04-19T08:31:18.849Z,30.40
2018-04-19T08:32:19.313Z,29.94
2018-04-19T08:33:19.772Z,31.07
2018-04-19T08:34:34.824Z,31.49
2018-04-19T08:35:20.702Z,32.45
2018-04-19T08:36:21.164Z,33.01
2018-04-19T08:37:21.633Z,33.31
2018-04-19T08:38:22.096Z,32.95
2018-04-19T08:39:22.554Z,32.41
2018-04-19T08:40:23.030Z,31.77
2018-04-19T08:41:23.490Z,31.51
2018-04-19T08:42:24.001Z,31.74
2018-04-19T08:43:24.422Z,31.31
2018-04-19T08:44:39.884Z,31.28
2018-04-19T08:45:25.357Z,31.92
2018-04-19T08:46:25.819Z,32.64
2018-04-19T08:47:26.289Z,32.95
2018-04-19T08:48:41.338Z,33.19
2018-04-19T08:49:27.224Z,32.19
2018-04-19T08:50:27.681Z,31.42
2018-04-19T08:51:28.159Z,31.31
2018-04-19T08:52:35.346Z,32.12
2018-04-19T08:53:29.085Z,32.19
2018-04-19T08:54:29.560Z,32.80
2018-04-19T08:56:51.654Z,33.49
2018-04-19T08:57:30.952Z,33.84
2018-04-19T09:00:07.867Z,33.98
2018-04-19T09:01:05.037Z,34.35
2018-04-19T09:02:05.510Z,31.49
2018-04-19T09:03:05.976Z,28.97
2018-04-19T09:04:06.446Z,30.16
2018-04-19T09:05:06.929Z,27.96
2018-04-19T09:06:07.431Z,30.19
2018-04-19T09:07:07.851Z,32.12
2018-04-19T09:08:08.334Z,33.39
2018-04-19T09:09:08.789Z,32.92
2018-04-19T09:10:09.251Z,33.39
2018-04-19T09:11:09.724Z,34.02
2018-04-19T09:12:10.208Z,32.31
2018-04-19T09:13:10.666Z,32.83
2018-04-19T09:14:11.135Z,34.20
2018-04-19T09:15:11.604Z,35.04
2018-04-19T09:16:12.084Z,33.99
2018-04-19T09:17:12.568Z,30.46
2018-04-19T09:18:13.018Z,31.54
2018-04-19T09:19:13.485Z,32.82
2018-04-19T09:20:13.952Z,31.70
2018-04-19T09:21:14.429Z,28.59
2018-04-19T09:22:14.924Z,27.37
2018-04-19T09:23:15.377Z,27.44
2018-04-19T09:24:15.840Z,26.77
2018-04-19T09:25:16.312Z,27.74
2018-04-19T09:26:16.789Z,27.92
2018-04-19T09:27:17.289Z,27.74
2018-04-19T09:28:17.731Z,28.38
2018-04-19T09:29:18.208Z,30.39
2018-04-19T09:30:18.667Z,32.38
2018-04-19T09:31:19.139Z,33.67
2018-04-19T09:32:20.343Z,33.46
2018-04-19T09:33:20.096Z,34.39
2018-04-19T09:34:20.554Z,32.83
2018-04-19T09:35:21.019Z,31.28
2018-04-19T09:36:21.491Z,28.98
2018-04-19T09:37:21.961Z,29.54
2018-04-19T09:38:23.332Z,32.22
2018-04-19T09:39:22.904Z,32.93
2018-04-19T09:40:23.378Z,33.87
2018-04-19T09:41:23.849Z,31.34
2018-04-19T09:42:24.321Z,29.02
2018-04-19T09:43:24.802Z,30.48
2018-04-19T09:44:25.270Z,32.73
2018-04-19T09:45:25.741Z,33.80
2018-04-19T09:46:26.210Z,31.37
2018-04-19T09:47:26.686Z,29.47
2018-04-19T09:48:27.161Z,28.82
2018-04-19T09:49:27.628Z,30.19
2018-04-19T09:50:28.104Z,29.29
2018-04-19T09:51:28.579Z,29.69
2018-04-19T09:52:29.076Z,27.12
2018-04-19T09:53:29.522Z,27.08
2018-04-19T09:54:29.991Z,29.56
2018-04-19T09:55:30.466Z,29.95
2018-04-19T09:56:30.942Z,29.51
2018-04-19T09:57:31.413Z,30.61
2018-04-19T09:58:31.888Z,32.18
2018-04-19T09:59:32.355Z,33.19
2018-04-19T10:00:32.824Z,34.27
2018-04-19T10:01:33.305Z,32.00
2018-04-19T10:02:33.770Z,33.20
2018-04-19T10:03:34.247Z,34.16
2018-04-19T10:04:34.725Z,34.71
2018-04-19T10:05:35.192Z,34.83
2018-04-19T10:06:35.701Z,35.07
2018-04-19T10:07:36.136Z,34.60
2018-04-19T10:08:36.617Z,34.40
2018-04-19T10:09:37.086Z,34.81
2018-04-19T10:10:37.560Z,34.62
2018-04-19T10:11:38.030Z,35.05
2018-04-19T10:12:38.510Z,35.22
2018-04-19T10:13:38.977Z,35.52
2018-04-19T10:14:39.462Z,36.08
2018-04-19T10:15:39.924Z,36.67
2018-04-19T10:16:40.399Z,36.30
2018-04-19T10:17:40.878Z,35.39
2018-04-19T10:18:41.347Z,34.88
2018-04-19T10:19:41.821Z,33.52
2018-04-19T10:20:42.295Z,35.36
2018-04-19T10:21:42.773Z,33.14
2018-04-19T10:22:43.252Z,34.45
2018-04-19T10:23:43.718Z,34.42
2018-04-19T10:24:44.191Z,34.20
2018-04-19T10:25:44.671Z,34.70
2018-04-19T10:26:45.147Z,34.74
2018-04-19T10:27:45.615Z,34.40
2018-04-19T10:28:46.086Z,35.66
2018-04-19T10:29:46.566Z,35.74
2018-04-19T10:30:47.042Z,36.54
2018-04-19T10:31:47.512Z,37.08
2018-04-19T10:32:47.980Z,36.21
2018-04-19T10:33:48.481Z,35.07
2018-04-19T10:34:48.932Z,31.34
2018-04-19T10:35:49.403Z,30.23
2018-04-19T10:36:49.877Z,31.65
2018-04-19T10:37:50.344Z,29.78
2018-04-19T10:38:50.823Z,30.05
2018-04-19T10:39:51.302Z,32.15
2018-04-19T10:40:51.765Z,33.34
2018-04-19T10:41:52.236Z,34.05
2018-04-19T10:42:52.725Z,34.89
2018-04-19T10:43:53.186Z,31.97
2018-04-19T10:44:53.653Z,29.16
2018-04-19T10:45:54.131Z,31.59
2018-04-19T10:46:54.599Z,31.25
2018-04-19T10:47:55.082Z,32.49
2018-04-19T10:48:55.545Z,30.06
2018-04-19T10:49:56.020Z,31.31
2018-04-19T10:50:56.493Z,32.78
2018-04-19T10:51:56.968Z,34.42
2018-04-19T10:52:57.433Z,32.86
2018-04-19T10:53:57.907Z,32.56
2018-04-19T10:54:58.388Z,31.49
2018-04-19T10:55:58.853Z,29.57
2018-04-19T10:56:59.322Z,29.27
2018-04-19T10:57:59.804Z,31.36
2018-04-19T10:59:00.277Z,31.34
2018-04-19T11:00:00.742Z,29.34
2018-04-19T11:01:01.241Z,29.20
2018-04-19T11:02:01.695Z,28.49
2018-04-19T11:03:02.166Z,28.32
2018-04-19T11:04:02.640Z,30.68
2018-04-19T11:05:03.120Z,31.97
2018-04-19T11:06:03.581Z,32.80
2018-04-19T11:07:04.059Z,32.68
2018-04-19T11:08:04.535Z,32.64
2018-04-19T11:09:05.000Z,32.18
2018-04-19T11:10:05.477Z,33.83
2018-04-19T11:11:05.952Z,33.36
2018-04-19T11:12:06.431Z,33.92
2018-04-19T11:13:06.898Z,31.21
2018-04-19T11:14:07.374Z,30.46
2018-04-19T11:15:07.848Z,31.15
2018-04-19T11:16:08.321Z,32.78
2018-04-19T11:17:08.800Z,34.54
2018-04-19T11:18:09.274Z,33.65
2018-04-19T11:19:09.762Z,33.27
2018-04-19T11:20:10.222Z,30.97
2018-04-19T11:21:10.706Z,31.73
2018-04-19T11:22:11.176Z,32.86
2018-04-19T11:23:11.654Z,34.47
2018-04-19T11:24:12.122Z,35.39
2018-04-19T11:25:12.600Z,35.11
2018-04-19T11:26:13.083Z,35.63
2018-04-19T11:27:13.547Z,34.55
2018-04-19T11:28:14.034Z,34.60
2018-04-19T11:29:14.502Z,34.97
2018-04-19T11:30:14.977Z,35.11
2018-04-19T11:31:15.453Z,32.43
2018-04-19T11:32:15.970Z,30.25
2018-04-19T11:33:16.441Z,33.01
2018-04-19T11:34:16.881Z,31.62
2018-04-19T11:35:17.351Z,31.99
2018-04-19T11:36:17.824Z,31.29
2018-04-19T11:37:18.301Z,32.53
2018-04-19T11:38:18.776Z,32.12
2018-04-19T11:39:19.248Z,29.56
2018-04-19T11:40:19.724Z,29.47
2018-04-19T11:41:20.194Z,29.39
2018-04-19T11:42:20.669Z,29.47
2018-04-19T11:43:21.132Z,27.51
2018-04-19T11:44:21.608Z,27.17
2018-04-19T11:45:22.067Z,27.89
2018-04-19T11:46:22.538Z,28.01
2018-04-19T11:47:23.006Z,28.10
2018-04-19T11:48:23.470Z,27.71
2018-04-19T11:49:23.930Z,27.42
2018-04-19T11:50:24.393Z,25.77
2018-04-19T11:51:24.853Z,24.99
2018-04-19T11:52:25.313Z,24.63
2018-04-19T11:53:25.771Z,24.70
2018-04-19T11:54:26.233Z,24.84
2018-04-19T11:55:26.689Z,24.81
2018-04-19T11:56:27.147Z,25.28
2018-04-19T11:57:27.607Z,25.62
2018-04-19T11:58:28.058Z,25.95
2018-04-19T11:59:28.564Z,26.28
2018-04-19T12:00:28.975Z,26.33
2018-04-19T12:01:29.427Z,26.38
2018-04-19T12:02:29.883Z,26.40
2018-04-19T12:03:30.331Z,26.41
2018-04-19T12:04:30.786Z,26.31
2018-04-19T12:05:31.239Z,26.51
2018-04-19T12:06:31.692Z,26.37
2018-04-19T12:07:32.159Z,26.31
2018-04-19T12:08:32.599Z,26.45
2018-04-19T12:09:33.047Z,26.38
2018-04-19T12:10:33.504Z,26.34
2018-04-19T12:11:33.956Z,26.10
2018-04-19T12:12:34.405Z,26.18
2018-04-19T12:13:34.900Z,26.19
2018-04-19T12:14:35.311Z,26.10
2018-04-19T12:15:35.758Z,25.80
2018-04-19T12:16:36.205Z,25.93
2018-04-19T12:17:36.660Z,25.70
2018-04-19T12:18:37.110Z,25.70
2018-04-19T12:19:37.560Z,25.99
2018-04-19T12:20:38.005Z,26.19
2018-04-19T12:21:38.463Z,25.65
2018-04-19T12:22:38.907Z,25.77
2018-04-19T12:23:39.359Z,26.00
2018-04-19T12:24:39.813Z,26.13
2018-04-19T12:25:40.257Z,26.16
2018-04-19T12:26:40.709Z,25.66
2018-04-19T12:27:41.163Z,24.98
2018-04-19T12:28:41.605Z,24.84
2018-04-19T12:29:42.057Z,25.08
2018-04-19T12:30:42.515Z,25.29
2018-04-19T12:31:42.956Z,25.13
2018-04-19T12:32:43.405Z,25.43
2018-04-19T12:33:43.857Z,25.28
2018-04-19T12:34:44.307Z,25.58
2018-04-19T12:35:44.762Z,24.88
2018-04-19T12:36:45.204Z,24.88
2018-04-19T12:37:45.652Z,25.10
2018-04-19T12:38:46.107Z,25.32
2018-04-19T12:39:46.551Z,24.98
2018-04-19T12:40:47.004Z,24.43
2018-04-19T12:41:47.457Z,24.51
2018-04-19T12:42:47.900Z,24.70
2018-04-19T12:43:48.351Z,24.84
2018-04-19T12:44:48.796Z,24.81
2018-04-19T12:45:49.244Z,25.13
2018-04-19T12:46:49.694Z,25.35
2018-04-19T12:47:50.144Z,25.44
2018-04-19T12:48:50.593Z,25.40
2018-04-19T12:49:51.041Z,25.58
2018-04-19T12:50:51.486Z,25.63
2018-04-19T12:51:51.934Z,25.14
2018-04-19T12:52:52.392Z,25.36
2018-04-19T12:53:52.836Z,25.10
2018-04-19T12:54:53.284Z,25.14
2018-04-19T12:55:53.761Z,25.21
2018-04-19T12:56:54.217Z,25.16
2018-04-19T12:57:54.630Z,25.26
2018-04-19T12:58:55.072Z,25.26
2018-04-19T12:59:55.521Z,25.35
2018-04-19T13:00:55.969Z,25.47
2018-04-19T13:01:56.414Z,25.55
2018-04-19T13:02:56.872Z,25.41
2018-04-19T13:03:57.315Z,25.25
2018-04-19T13:04:57.757Z,25.28
2018-04-19T13:05:58.210Z,24.99
2018-04-19T13:06:58.661Z,25.22
2018-04-19T13:07:59.114Z,25.35
2018-04-19T13:08:59.561Z,25.35
2018-04-19T13:10:00.005Z,25.46
2018-04-19T13:11:00.450Z,25.46
2018-04-19T13:12:00.897Z,25.53
2018-04-19T13:13:01.341Z,25.55
2018-04-19T13:14:01.805Z,25.48
2018-04-19T13:15:02.249Z,25.53
2018-04-19T13:16:02.696Z,25.58
2018-04-19T13:17:03.137Z,25.47
2018-04-19T13:18:03.596Z,25.53
2018-04-19T13:19:04.045Z,25.65
2018-04-19T13:20:04.480Z,25.72
2018-04-19T13:21:04.924Z,25.58
2018-04-19T13:22:05.386Z,25.51
2018-04-19T13:23:05.815Z,25.73
2018-04-19T13:24:06.284Z,25.44
2018-04-19T13:25:06.716Z,25.51
2018-04-19T13:26:07.160Z,25.48
2018-04-19T13:27:07.611Z,25.43
2018-04-19T13:28:08.059Z,25.43
2018-04-19T13:29:08.508Z,25.47
2018-04-19T13:30:08.955Z,25.48
2018-04-19T13:31:09.400Z,25.36
2018-04-19T13:32:09.857Z,25.40
2018-04-19T13:33:10.293Z,25.33
2018-04-19T13:34:10.739Z,25.38
2018-04-19T13:35:11.203Z,25.47
2018-04-19T13:36:11.637Z,25.36
2018-04-19T13:37:12.086Z,25.38
2018-04-19T13:38:12.543Z,25.46
2018-04-19T13:39:12.977Z,25.40
2018-04-19T13:40:13.426Z,25.50
2018-04-19T13:41:13.872Z,25.55
2018-04-19T13:42:14.322Z,25.47
2018-04-19T13:43:14.771Z,25.25
2018-04-19T13:44:15.213Z,25.41
2018-04-19T13:45:15.659Z,25.54
2018-04-19T13:46:16.106Z,25.54
2018-04-19T13:47:16.556Z,25.22
2018-04-19T13:48:17.003Z,24.99
2018-04-19T13:49:17.446Z,25.10
2018-04-19T13:50:17.901Z,25.18
2018-04-19T13:51:18.347Z,25.41
2018-04-19T13:52:18.794Z,25.46
2018-04-19T13:53:19.240Z,25.53
2018-04-19T13:54:19.694Z,25.73
2018-04-19T13:55:20.140Z,25.83
2018-04-19T13:56:20.606Z,25.93
2018-04-19T13:57:21.033Z,25.80
2018-04-19T13:58:21.480Z,25.80
2018-04-19T13:59:21.926Z,25.63
2018-04-19T14:00:22.373Z,25.77
2018-04-19T14:01:22.824Z,25.53
2018-04-19T14:02:23.274Z,25.60
2018-04-19T14:03:23.720Z,25.77
2018-04-19T14:04:24.165Z,25.80
2018-04-19T14:05:24.647Z,25.78
2018-04-19T14:06:25.067Z,25.75
2018-04-19T14:07:25.507Z,25.69
2018-04-19T14:08:25.964Z,25.70
2018-04-19T14:09:26.405Z,25.70
2018-04-19T14:10:26.856Z,25.70
2018-04-19T14:11:27.301Z,25.60
2018-04-19T14:12:27.749Z,25.78
2018-04-19T14:13:28.200Z,25.85
2018-04-19T14:14:28.644Z,25.95
2018-04-19T14:15:29.097Z,25.96
2018-04-19T14:16:29.548Z,26.07
2018-04-19T14:17:29.989Z,25.83
2018-04-19T14:18:30.439Z,25.47
2018-04-19T14:19:30.892Z,25.73
2018-04-19T14:20:31.329Z,25.38
2018-04-19T14:21:31.780Z,25.63
2018-04-19T14:22:32.226Z,25.84
2018-04-19T14:23:32.677Z,25.83
2018-04-19T14:24:33.121Z,25.80
2018-04-19T14:25:33.569Z,25.60
2018-04-19T14:26:34.021Z,25.25
2018-04-19T14:27:34.467Z,25.47
2018-04-19T14:28:34.922Z,25.23
2018-04-19T14:29:35.360Z,25.46
2018-04-19T14:30:35.809Z,25.11
2018-04-19T14:31:36.260Z,25.35
2018-04-19T14:32:36.711Z,25.59
2018-04-19T14:33:37.154Z,25.70
2018-04-19T14:34:37.602Z,25.63
2018-04-19T14:35:38.049Z,25.83
2018-04-19T14:36:38.497Z,25.81
2018-04-19T14:37:38.945Z,25.77
2018-04-19T14:38:39.393Z,25.83
2018-04-19T14:39:39.844Z,25.66
2018-04-19T14:40:40.285Z,25.54
2018-04-19T14:41:40.735Z,25.72
2018-04-19T14:42:41.183Z,25.81
2018-04-19T14:43:41.637Z,25.69
2018-04-19T14:44:42.081Z,25.50
2018-04-19T14:45:42.532Z,25.29
2018-04-19T14:46:42.978Z,25.25
2018-04-19T14:47:43.424Z,25.53
2018-04-19T14:48:43.870Z,25.73
2018-04-19T14:49:44.317Z,25.81
2018-04-19T14:50:44.773Z,25.90
2018-04-19T14:51:45.232Z,26.00
2018-04-19T14:52:45.664Z,25.98
2018-04-19T14:53:46.110Z,26.00
2018-04-19T14:54:46.562Z,25.87
2018-04-19T14:55:47.006Z,25.80
2018-04-19T14:56:47.455Z,25.91
2018-04-19T14:57:47.909Z,25.84
2018-04-19T14:58:48.352Z,25.84
2018-04-19T14:59:48.798Z,25.88
2018-04-19T15:00:49.247Z,25.81
2018-04-19T15:01:49.695Z,25.95
2018-04-19T15:02:50.143Z,25.70
2018-04-19T15:03:50.593Z,25.72
2018-04-19T15:04:51.035Z,25.65
2018-04-19T15:05:51.496Z,25.35
2018-04-19T15:06:51.946Z,25.54
2018-04-19T15:07:52.382Z,25.48
2018-04-19T15:08:52.832Z,25.54
2018-04-19T15:09:53.279Z,25.83
2018-04-19T15:10:53.749Z,25.93
2018-04-19T15:11:54.220Z,25.77
2018-04-19T15:12:54.668Z,25.47
2018-04-19T15:13:55.107Z,25.43
2018-04-19T15:14:55.540Z,25.60
2018-04-19T15:15:55.977Z,25.69
2018-04-19T15:16:56.430Z,25.69